createdAt,value
2022-11-06T00:01:12.166Z,8.89
2022-11-06T00:03:39.457Z,8.91
2022-11-06T00:06:34.341Z,9.05
2022-11-06T00:09:02.918Z,8.99
2022-11-06T00:11:30.385Z,8.96
2022-11-06T00:13:58.528Z,8.96
2022-11-06T00:16:25.597Z,8.96
2022-11-06T00:18:52.786Z,8.91
2022-11-06T00:21:23.730Z,8.88
2022-11-06T00:23:51.971Z,8.92
2022-11-06T00:26:21.430Z,9.02
2022-11-06T00:28:49.665Z,9.06
2022-11-06T00:31:19.062Z,9.01
2022-11-06T00:33:46.744Z,9.02
2022-11-06T00:36:16.848Z,9.00
2022-11-06T00:38:43.757Z,9.01
2022-11-06T00:41:15.483Z,9.00
2022-11-06T00:43:43.056Z,9.03
2022-11-06T00:46:12.634Z,8.75
2022-11-06T00:48:40.868Z,8.91
2022-11-06T00:51:19.759Z,8.92
2022-11-06T00:53:47.262Z,8.96
2022-11-06T00:56:16.823Z,8.78
2022-11-06T00:58:44.662Z,8.90
2022-11-06T01:01:20.363Z,8.94
2022-11-06T01:03:53.850Z,8.72
2022-11-06T01:06:23.106Z,8.75
2022-11-06T01:08:51.789Z,8.80
2022-11-06T01:11:29.516Z,8.76
2022-11-06T01:14:03.858Z,8.83
2022-11-06T01:16:31.436Z,8.76
2022-11-06T01:18:59.661Z,8.64
2022-11-06T01:21:32.230Z,8.74
2022-11-06T01:24:02.151Z,8.85
2022-11-06T01:26:38.237Z,8.86
2022-11-06T01:29:08.972Z,8.70
2022-11-06T01:31:36.027Z,8.89
2022-11-06T01:34:03.734Z,8.91
2022-11-06T01:36:31.099Z,8.83
2022-11-06T01:39:03.328Z,8.96
2022-11-06T01:41:38.247Z,8.89
2022-11-06T01:44:26.962Z,8.81
2022-11-06T01:46:53.671Z,8.96
2022-11-06T01:49:20.781Z,8.79
2022-11-06T01:51:55.240Z,8.82
2022-11-06T01:54:25.452Z,8.89
2022-11-06T01:56:55.140Z,8.91
2022-11-06T01:59:24.816Z,8.85
2022-11-06T02:01:52.838Z,8.74
2022-11-06T02:04:25.947Z,8.86
2022-11-06T02:06:53.108Z,8.88
2022-11-06T02:09:20.127Z,8.83
2022-11-06T02:11:55.665Z,8.82
2022-11-06T02:14:30.026Z,8.81
2022-11-06T02:17:03.890Z,8.77
2022-11-06T02:19:39.618Z,8.83
2022-11-06T02:22:18.040Z,8.75
2022-11-06T02:25:03.298Z,8.83
2022-11-06T02:27:31.367Z,8.72
2022-11-06T02:30:08.726Z,8.74
2022-11-06T02:33:06.208Z,8.69
2022-11-06T02:35:38.725Z,8.71
2022-11-06T02:38:13.079Z,8.71
2022-11-06T02:40:45.127Z,8.69
2022-11-06T02:43:14.675Z,8.74
2022-11-06T02:46:18.108Z,8.67
2022-11-06T02:48:50.863Z,8.60
2022-11-06T02:51:22.320Z,8.67
2022-11-06T02:53:49.945Z,8.66
2022-11-06T02:56:23.576Z,8.64
2022-11-06T02:58:59.430Z,8.61
2022-11-06T03:01:38.020Z,8.65
2022-11-06T03:04:11.878Z,8.66
2022-11-06T03:06:52.089Z,8.62
2022-11-06T03:09:22.677Z,8.60
2022-11-06T03:11:58.322Z,8.62
2022-11-06T03:14:42.706Z,8.66
2022-11-06T03:17:29.815Z,8.66
2022-11-06T03:20:04.866Z,8.62
2022-11-06T03:22:32.408Z,8.65
2022-11-06T03:25:02.316Z,8.60
2022-11-06T03:27:47.227Z,8.63
2022-11-06T03:30:16.817Z,8.63
2022-11-06T03:33:05.076Z,8.65
2022-11-06T03:35:40.686Z,8.62
2022-11-06T03:38:25.773Z,8.48
2022-11-06T03:41:01.934Z,8.66
2022-11-06T03:43:33.641Z,8.64
2022-11-06T03:46:04.535Z,8.67
2022-11-06T03:48:44.105Z,8.64
2022-11-06T03:51:30.742Z,8.67
2022-11-06T03:54:03.712Z,8.65
2022-11-06T03:56:46.510Z,8.62
2022-11-06T03:59:15.459Z,8.60
2022-11-06T04:01:46.138Z,8.65
2022-11-06T04:04:31.060Z,8.60
2022-11-06T04:07:02.336Z,8.68
2022-11-06T04:09:51.706Z,8.61
2022-11-06T04:12:41.792Z,8.69
2022-11-06T04:15:12.844Z,8.68
2022-11-06T04:17:41.333Z,8.64
2022-11-06T04:20:32.745Z,8.62
2022-11-06T04:23:23.401Z,8.57
2022-11-06T04:26:22.693Z,8.62
2022-11-06T04:28:55.258Z,8.68
2022-11-06T04:31:35.261Z,8.61
2022-11-06T04:34:33.707Z,8.61
2022-11-06T04:37:23.146Z,8.57
2022-11-06T04:40:16.232Z,8.59
2022-11-06T04:42:46.568Z,8.49
2022-11-06T04:45:39.741Z,8.65
2022-11-06T04:48:08.224Z,8.61
2022-11-06T04:50:44.111Z,8.68
2022-11-06T04:53:12.124Z,8.63
2022-11-06T04:55:51.384Z,8.67
2022-11-06T04:58:18.434Z,8.66
2022-11-06T05:00:47.631Z,8.71
2022-11-06T05:03:15.596Z,8.70
2022-11-06T05:05:43.273Z,8.69
2022-11-06T05:08:17.650Z,8.73
2022-11-06T05:10:45.381Z,8.76
2022-11-06T05:13:12.846Z,8.64
2022-11-06T05:15:39.886Z,8.76
2022-11-06T05:18:06.971Z,8.78
2022-11-06T05:20:34.386Z,8.76
2022-11-06T05:23:01.698Z,8.77
2022-11-06T05:25:30.469Z,8.77
2022-11-06T05:27:57.145Z,8.77
2022-11-06T05:30:24.905Z,8.81
2022-11-06T05:32:52.397Z,8.80
2022-11-06T05:35:20.557Z,8.81
2022-11-06T05:37:48.118Z,8.78
2022-11-06T05:40:15.690Z,8.83
2022-11-06T05:42:43.376Z,8.84
2022-11-06T05:45:11.485Z,8.82
2022-11-06T05:47:41.806Z,8.86
2022-11-06T05:50:10.204Z,8.86
2022-11-06T05:52:37.429Z,8.84
2022-11-06T05:55:08.815Z,8.86
2022-11-06T05:57:38.240Z,8.82
2022-11-06T06:00:06.474Z,8.86
2022-11-06T06:02:33.598Z,8.84
2022-11-06T06:05:01.230Z,8.85
2022-11-06T06:07:28.261Z,8.85
2022-11-06T06:09:55.209Z,8.81
2022-11-06T06:12:23.838Z,8.86
2022-11-06T06:14:50.811Z,8.79
2022-11-06T06:17:17.416Z,8.81
2022-11-06T06:19:44.417Z,8.81
2022-11-06T06:22:11.602Z,8.81
2022-11-06T06:24:38.996Z,8.83
2022-11-06T06:27:05.603Z,8.82
2022-11-06T06:29:32.684Z,8.80
2022-11-06T06:31:59.744Z,8.84
2022-11-06T06:34:26.973Z,8.77
2022-11-06T06:36:54.864Z,8.77
2022-11-06T06:39:21.397Z,8.75
2022-11-06T06:41:49.200Z,8.76
2022-11-06T06:44:16.488Z,8.72
2022-11-06T06:46:43.650Z,8.72
2022-11-06T06:49:10.897Z,8.59
2022-11-06T06:51:37.910Z,8.69
2022-11-06T06:54:04.926Z,8.71
2022-11-06T06:56:31.446Z,8.72
2022-11-06T06:58:58.002Z,8.71
2022-11-06T07:01:25.394Z,8.66
2022-11-06T07:03:52.088Z,8.72
2022-11-06T07:06:19.821Z,8.56
2022-11-06T07:08:47.097Z,8.67
2022-11-06T07:11:14.010Z,8.73
2022-11-06T07:13:40.605Z,8.68
2022-11-06T07:16:09.625Z,8.71
2022-11-06T07:18:37.296Z,8.73
2022-11-06T07:21:13.191Z,8.77
2022-11-06T07:23:40.365Z,8.75
2022-11-06T07:26:07.476Z,8.80
2022-11-06T07:28:34.628Z,8.64
2022-11-06T07:31:06.313Z,8.85
2022-11-06T07:33:33.451Z,8.79
2022-11-06T07:36:09.691Z,8.85
2022-11-06T07:38:37.700Z,8.82
2022-11-06T07:41:06.263Z,8.84
2022-11-06T07:43:33.260Z,8.88
2022-11-06T07:46:05.321Z,8.94
2022-11-06T07:48:33.001Z,8.96
2022-11-06T07:51:03.398Z,8.91
2022-11-06T07:53:29.933Z,8.85
2022-11-06T07:55:57.307Z,8.90
2022-11-06T07:58:24.604Z,8.98
2022-11-06T08:00:53.832Z,9.12
2022-11-06T08:03:21.542Z,9.16
2022-11-06T08:05:48.386Z,9.14
2022-11-06T08:08:15.237Z,9.28
2022-11-06T08:10:43.809Z,9.28
2022-11-06T08:13:11.954Z,9.45
2022-11-06T08:15:39.739Z,9.51
2022-11-06T08:18:08.130Z,9.55
2022-11-06T08:20:36.137Z,9.59
2022-11-06T08:23:04.439Z,9.68
2022-11-06T08:25:31.789Z,9.72
2022-11-06T08:28:03.194Z,9.71
2022-11-06T08:30:30.862Z,9.79
2022-11-06T08:33:06.957Z,9.73
2022-11-06T08:35:37.605Z,9.84
2022-11-06T08:38:04.428Z,9.85
2022-11-06T08:40:32.445Z,9.69
2022-11-06T08:43:04.053Z,9.84
2022-11-06T08:45:31.004Z,9.83
2022-11-06T08:48:02.548Z,9.90
2022-11-06T08:50:30.891Z,9.85
2022-11-06T08:52:59.108Z,9.85
2022-11-06T08:55:25.769Z,9.91
2022-11-06T08:57:54.891Z,9.94
2022-11-06T09:00:21.669Z,9.95
2022-11-06T09:02:48.237Z,10.03
2022-11-06T09:05:15.106Z,10.33
2022-11-06T09:07:41.731Z,10.44
2022-11-06T09:10:08.825Z,10.37
2022-11-06T09:12:35.369Z,10.63
2022-11-06T09:15:02.597Z,10.54
2022-11-06T09:17:29.186Z,10.41
2022-11-06T09:19:55.793Z,10.67
2022-11-06T09:22:22.696Z,10.59
2022-11-06T09:25:03.217Z,10.51
2022-11-06T09:27:31.136Z,10.77
2022-11-06T09:29:58.250Z,10.86
2022-11-06T09:32:25.301Z,10.94
2022-11-06T09:34:51.855Z,10.96
2022-11-06T09:37:18.523Z,10.95
2022-11-06T09:39:45.005Z,10.77
2022-11-06T09:42:27.450Z,10.98
2022-11-06T09:45:00.269Z,10.94
2022-11-06T09:47:32.708Z,10.88
2022-11-06T09:49:59.413Z,10.95
2022-11-06T09:52:41.731Z,10.90
2022-11-06T09:55:24.580Z,10.91
2022-11-06T09:57:55.890Z,10.69
2022-11-06T10:00:22.821Z,10.78
2022-11-06T10:02:55.846Z,10.79
2022-11-06T10:05:32.217Z,10.83
2022-11-06T10:08:01.963Z,10.89
2022-11-06T10:10:50.102Z,10.93
2022-11-06T10:13:26.964Z,10.97
2022-11-06T10:16:12.575Z,11.09
2022-11-06T10:19:00.826Z,11.13
2022-11-06T10:21:39.538Z,11.09
2022-11-06T10:24:20.021Z,11.07
2022-11-06T10:26:53.011Z,11.15
2022-11-06T10:29:30.809Z,11.11
2022-11-06T10:32:00.134Z,11.16
2022-11-06T10:34:39.933Z,11.20
2022-11-06T10:37:13.388Z,11.22
2022-11-06T10:39:40.353Z,11.18
2022-11-06T10:42:12.855Z,11.12
2022-11-06T10:44:44.780Z,11.22
2022-11-06T10:47:18.250Z,11.21
2022-11-06T10:49:56.841Z,11.10
2022-11-06T10:53:04.622Z,11.07
2022-11-06T10:55:59.186Z,11.09
2022-11-06T10:58:33.566Z,11.07
2022-11-06T11:01:03.333Z,11.14
2022-11-06T11:03:35.770Z,11.21
2022-11-06T11:06:04.363Z,11.42
2022-11-06T11:08:30.964Z,11.45
2022-11-06T11:11:14.617Z,11.39
2022-11-06T11:13:46.766Z,11.36
2022-11-06T11:16:18.388Z,11.30
2022-11-06T11:18:46.606Z,11.32
2022-11-06T11:21:19.091Z,11.24
2022-11-06T11:23:47.210Z,11.24
2022-11-06T11:26:25.655Z,11.21
2022-11-06T11:28:55.573Z,11.13
2022-11-06T11:31:30.627Z,11.11
2022-11-06T11:33:58.743Z,11.16
2022-11-06T11:36:25.472Z,11.14
2022-11-06T11:38:52.654Z,10.88
2022-11-06T11:41:19.118Z,11.06
2022-11-06T11:43:58.638Z,10.87
2022-11-06T11:46:25.830Z,10.98
2022-11-06T11:48:57.739Z,10.96
2022-11-06T11:51:29.046Z,10.91
2022-11-06T11:54:06.778Z,10.87
2022-11-06T11:57:04.243Z,10.86
2022-11-06T11:59:28.612Z,10.80
2022-11-06T12:02:01.636Z,10.79
2022-11-06T12:04:32.366Z,10.74
2022-11-06T12:07:05.250Z,10.71
2022-11-06T12:09:40.619Z,10.64
2022-11-06T12:12:21.580Z,10.69
2022-11-06T12:15:06.266Z,10.71
2022-11-06T12:17:36.452Z,10.73
2022-11-06T12:20:11.204Z,10.73
2022-11-06T12:22:46.075Z,10.69
2022-11-06T12:25:22.493Z,10.67
2022-11-06T12:27:55.071Z,10.75
2022-11-06T12:30:21.834Z,10.76
2022-11-06T12:32:48.986Z,10.82
2022-11-06T12:35:19.225Z,10.82
2022-11-06T12:37:57.945Z,10.82
2022-11-06T12:40:36.384Z,10.76
2022-11-06T12:43:18.049Z,10.92
2022-11-06T12:46:15.779Z,10.91
2022-11-06T12:49:07.696Z,10.78
2022-11-06T12:51:47.583Z,10.84
2022-11-06T12:54:17.622Z,10.76
2022-11-06T12:57:23.353Z,10.69
2022-11-06T13:00:10.135Z,10.69
2022-11-06T13:03:07.796Z,10.69
2022-11-06T13:06:12.824Z,10.64
2022-11-06T13:09:00.893Z,10.67
2022-11-06T13:12:17.321Z,10.65
2022-11-06T13:14:56.386Z,10.68
2022-11-06T13:17:39.101Z,10.59
2022-11-06T13:20:17.095Z,10.59
2022-11-06T13:22:52.918Z,10.53
2022-11-06T13:25:26.982Z,10.55
2022-11-06T13:27:57.089Z,10.54
2022-11-06T13:30:24.689Z,10.45
2022-11-06T13:33:01.218Z,10.42
2022-11-06T13:35:28.775Z,10.37
2022-11-06T13:37:57.074Z,10.37
2022-11-06T13:40:41.719Z,10.34
2022-11-06T13:43:17.578Z,10.31
2022-11-06T13:46:06.029Z,10.28
2022-11-06T13:48:37.311Z,10.19
2022-11-06T13:51:34.053Z,10.17
2022-11-06T13:54:26.721Z,10.11
2022-11-06T13:57:12.555Z,10.05
2022-11-06T14:00:10.031Z,10.00
2022-11-06T14:03:01.209Z,9.96
2022-11-06T14:05:46.580Z,9.94
2022-11-06T14:08:16.992Z,9.85
2022-11-06T14:10:56.307Z,9.73
2022-11-06T14:13:29.574Z,9.63
2022-11-06T14:16:15.161Z,9.69
2022-11-06T14:18:42.567Z,9.59
2022-11-06T14:21:37.443Z,9.54
2022-11-06T14:24:27.831Z,9.51
2022-11-06T14:26:54.445Z,9.27
2022-11-06T14:29:29.845Z,9.40
2022-11-06T14:32:19.061Z,9.25
2022-11-06T14:34:45.876Z,9.30
2022-11-06T14:37:46.794Z,9.22
2022-11-06T14:40:14.905Z,9.15
2022-11-06T14:42:47.851Z,8.87
2022-11-06T14:45:22.703Z,9.03
2022-11-06T14:47:56.476Z,8.88
2022-11-06T14:50:46.992Z,8.98
2022-11-06T14:53:23.655Z,8.73
2022-11-06T14:56:00.707Z,8.92
2022-11-06T14:58:37.200Z,8.74
2022-11-06T15:01:10.424Z,8.89
2022-11-06T15:03:51.917Z,8.86
2022-11-06T15:06:18.506Z,8.87
2022-11-06T15:08:51.020Z,8.79
2022-11-06T15:11:29.903Z,8.79
2022-11-06T15:14:03.490Z,8.76
2022-11-06T15:16:45.388Z,8.70
2022-11-06T15:19:16.028Z,8.58
2022-11-06T15:21:47.909Z,8.44
2022-11-06T15:24:27.673Z,8.40
2022-11-06T15:27:00.068Z,8.43
2022-11-06T15:29:37.773Z,8.49
2022-11-06T15:32:10.150Z,8.49
2022-11-06T15:34:40.302Z,8.48
2022-11-06T15:37:10.358Z,8.47
2022-11-06T15:39:42.667Z,8.42
2022-11-06T15:42:14.082Z,8.37
2022-11-06T15:44:41.647Z,8.39
2022-11-06T15:47:29.082Z,8.30
2022-11-06T15:50:22.097Z,8.32
2022-11-06T15:52:56.188Z,8.19
2022-11-06T15:55:33.977Z,8.17
2022-11-06T15:58:09.133Z,8.15
2022-11-06T16:00:38.980Z,8.14
2022-11-06T16:03:06.694Z,8.11
2022-11-06T16:05:36.888Z,8.11
2022-11-06T16:08:06.222Z,7.94
2022-11-06T16:10:36.568Z,7.97
2022-11-06T16:13:05.397Z,8.01
2022-11-06T16:15:59.149Z,8.07
2022-11-06T16:18:40.407Z,7.81
2022-11-06T16:21:24.166Z,7.85
2022-11-06T16:24:04.926Z,7.57
2022-11-06T16:26:37.369Z,7.77
2022-11-06T16:29:18.711Z,7.55
2022-11-06T16:31:47.029Z,7.59
2022-11-06T16:34:31.935Z,7.61
2022-11-06T16:37:01.948Z,7.43
2022-11-06T16:39:48.788Z,7.37
2022-11-06T16:42:22.129Z,7.53
2022-11-06T16:45:20.993Z,7.53
2022-11-06T16:48:13.738Z,7.46
2022-11-06T16:50:58.667Z,7.36
2022-11-06T16:53:28.302Z,7.31
2022-11-06T16:56:01.566Z,7.20
2022-11-06T16:58:31.577Z,7.40
2022-11-06T17:01:04.723Z,7.38
2022-11-06T17:03:47.710Z,7.24
2022-11-06T17:06:22.869Z,7.23
2022-11-06T17:09:28.009Z,7.28
2022-11-06T17:11:55.913Z,7.30
2022-11-06T17:14:23.580Z,7.16
2022-11-06T17:16:53.194Z,7.18
2022-11-06T17:19:21.948Z,7.01
2022-11-06T17:21:50.008Z,7.21
2022-11-06T17:24:35.865Z,7.17
2022-11-06T17:27:03.410Z,7.24
2022-11-06T17:29:30.033Z,7.26
2022-11-06T17:31:57.389Z,7.19
2022-11-06T17:34:23.925Z,7.17
2022-11-06T17:36:50.485Z,7.14
2022-11-06T17:39:17.080Z,7.17
2022-11-06T17:41:43.611Z,7.16
2022-11-06T17:44:15.543Z,6.98
2022-11-06T17:46:45.018Z,7.20
2022-11-06T17:49:17.138Z,7.15
2022-11-06T17:51:53.693Z,7.17
2022-11-06T17:54:28.358Z,7.22
2022-11-06T17:56:56.756Z,7.30
2022-11-06T17:59:26.818Z,7.20
2022-11-06T18:01:55.510Z,7.22
2022-11-06T18:04:25.061Z,7.24
2022-11-06T18:06:53.558Z,7.24
2022-11-06T18:09:21.603Z,7.20
2022-11-06T18:11:53.504Z,7.22
2022-11-06T18:14:21.073Z,7.10
2022-11-06T18:16:48.182Z,7.23
2022-11-06T18:19:18.235Z,7.13
2022-11-06T18:21:44.894Z,7.16
2022-11-06T18:24:11.565Z,6.99
2022-11-06T18:26:38.398Z,7.25
2022-11-06T18:29:06.140Z,7.01
2022-11-06T18:31:33.522Z,7.26
2022-11-06T18:34:00.094Z,7.30
2022-11-06T18:36:27.268Z,7.25
2022-11-06T18:38:53.802Z,7.30
2022-11-06T18:41:22.356Z,7.10
2022-11-06T18:43:49.115Z,7.17
2022-11-06T18:46:18.874Z,7.23
2022-11-06T18:48:45.950Z,7.34
2022-11-06T18:51:32.651Z,7.43
2022-11-06T18:54:02.419Z,7.38
2022-11-06T18:56:29.848Z,7.37
2022-11-06T18:58:56.625Z,7.36
2022-11-06T19:01:23.579Z,7.45
2022-11-06T19:03:50.536Z,7.46
2022-11-06T19:06:19.928Z,7.39
2022-11-06T19:08:47.170Z,7.29
2022-11-06T19:11:15.341Z,7.41
2022-11-06T19:13:47.597Z,7.46
2022-11-06T19:16:16.105Z,7.50
2022-11-06T19:18:42.790Z,7.52
2022-11-06T19:21:11.313Z,7.34
2022-11-06T19:23:39.958Z,7.53
2022-11-06T19:29:00.193Z,7.53
2022-11-06T19:31:30.314Z,7.56
2022-11-06T19:33:59.115Z,7.56
2022-11-06T19:36:26.266Z,7.55
2022-11-06T19:38:53.551Z,7.44
2022-11-06T19:41:20.595Z,7.49
2022-11-06T19:43:47.103Z,7.64
2022-11-06T19:46:13.674Z,7.63
2022-11-06T19:48:41.231Z,7.54
2022-11-06T19:51:13.073Z,7.66
2022-11-06T19:53:40.887Z,7.47
2022-11-06T19:56:10.052Z,7.46
2022-11-06T19:58:37.389Z,7.55
2022-11-06T20:01:08.842Z,7.75
2022-11-06T20:03:36.733Z,7.76
2022-11-06T20:06:07.764Z,7.79
2022-11-06T20:08:36.818Z,7.83
2022-11-06T20:11:08.327Z,7.82
2022-11-06T20:13:36.648Z,7.90
2022-11-06T20:16:08.972Z,7.90
2022-11-06T20:18:36.654Z,7.89
2022-11-06T20:21:05.994Z,7.96
2022-11-06T20:23:33.144Z,7.95
2022-11-06T20:25:59.734Z,7.90
2022-11-06T20:28:26.604Z,8.01
2022-11-06T20:30:53.382Z,8.07
2022-11-06T20:33:20.428Z,7.92
2022-11-06T20:35:47.167Z,7.93
2022-11-06T20:38:14.500Z,8.10
2022-11-06T20:40:42.284Z,8.16
2022-11-06T20:43:09.204Z,7.96
2022-11-06T20:45:37.603Z,8.12
2022-11-06T20:48:05.663Z,8.08
2022-11-06T20:50:33.420Z,8.09
2022-11-06T20:53:00.149Z,8.05
2022-11-06T20:55:27.202Z,8.10
2022-11-06T20:57:54.294Z,8.17
2022-11-06T21:00:21.388Z,8.18
2022-11-06T21:02:48.150Z,8.22
2022-11-06T21:05:15.023Z,8.31
2022-11-06T21:07:42.085Z,8.37
2022-11-06T21:10:11.073Z,8.46
2022-11-06T21:12:37.944Z,8.35
2022-11-06T21:15:05.069Z,8.39
2022-11-06T21:17:32.194Z,8.47
2022-11-06T21:19:59.217Z,8.65
2022-11-06T21:22:25.835Z,8.55
2022-11-06T21:24:52.396Z,8.63
2022-11-06T21:27:19.527Z,8.72
2022-11-06T21:29:46.087Z,8.73
2022-11-06T21:32:13.146Z,8.66
2022-11-06T21:34:40.075Z,8.82
2022-11-06T21:37:07.106Z,8.76
2022-11-06T21:39:36.461Z,9.02
2022-11-06T21:42:04.670Z,9.01
2022-11-06T21:44:31.834Z,8.94
2022-11-06T21:46:58.796Z,9.10
2022-11-06T21:49:25.919Z,9.09
2022-11-06T21:51:52.965Z,9.06
2022-11-06T21:54:38.181Z,9.13
2022-11-06T21:57:04.665Z,9.12
2022-11-06T21:59:31.301Z,9.17
2022-11-06T22:01:58.424Z,9.19
2022-11-06T22:04:25.677Z,9.17
2022-11-06T22:06:52.935Z,9.23
2022-11-06T22:09:24.980Z,9.19
2022-11-06T22:11:52.659Z,9.17
2022-11-06T22:14:19.140Z,9.21
2022-11-06T22:16:47.772Z,9.16
2022-11-06T22:19:16.652Z,9.26
2022-11-06T22:21:43.459Z,9.20
2022-11-06T22:24:12.607Z,9.08
2022-11-06T22:26:39.749Z,9.09
2022-11-06T22:29:10.486Z,9.16
2022-11-06T22:31:37.504Z,9.04
2022-11-06T22:34:05.097Z,9.13
2022-11-06T22:36:32.311Z,9.03
2022-11-06T22:39:00.757Z,9.10
2022-11-06T22:41:27.483Z,9.25
2022-11-06T22:43:59.014Z,9.28
2022-11-06T22:46:27.381Z,9.27
2022-11-06T22:48:54.489Z,9.34
2022-11-06T22:51:24.474Z,9.33
2022-11-06T22:53:52.537Z,9.37
2022-11-06T22:56:22.039Z,9.38
2022-11-06T22:58:53.631Z,9.33
2022-11-06T23:01:22.672Z,9.28
2022-11-06T23:03:50.053Z,9.31
2022-11-06T23:06:17.313Z,9.33
2022-11-06T23:08:47.131Z,9.41
2022-11-06T23:11:16.297Z,9.35
2022-11-06T23:13:47.173Z,9.54
2022-11-06T23:16:18.131Z,9.44
2022-11-06T23:18:45.440Z,9.48
2022-11-06T23:21:14.400Z,9.48
2022-11-06T23:23:42.773Z,9.47
2022-11-06T23:26:15.200Z,9.32
2022-11-06T23:28:42.391Z,9.49
2022-11-06T23:31:10.553Z,9.43
2022-11-06T23:33:37.235Z,9.52
2022-11-06T23:36:12.989Z,9.49
2022-11-06T23:38:40.368Z,9.47
2022-11-06T23:41:27.854Z,9.47
2022-11-06T23:43:55.987Z,9.43
2022-11-06T23:46:26.321Z,9.37
2022-11-06T23:48:53.394Z,9.40
2022-11-06T23:51:20.104Z,9.40
2022-11-06T23:53:47.217Z,9.33
2022-11-06T23:56:14.435Z,9.40
2022-11-06T23:58:43.400Z,9.38
